Time;durP1;ratioP1;P1;durP2;ratioP2;P2;SDS_P1;SDS_P2;PMS_P1;PMS_P2;Temp;Humidity;BMP_temperature;BMP_pressure;BME280_temperature;BME280_humidity;BME280_pressure;Samples;Min_cycle;Max_cycle;Signal;HPM_P1;HPM_P2
2021/03/16 00:00:16;;;;;;;9.13;4.30;;;16.70;55.30;;;;;;4994076;28;20378;-72
2021/03/16 00:02:42;;;;;;;9.68;4.30;;;16.70;55.20;;;;;;4994193;28;20410;-72
2021/03/16 00:05:09;;;;;;;9.07;4.10;;;16.70;55.20;;;;;;4994132;28;20128;-72
2021/03/16 00:07:35;;;;;;;8.15;3.42;;;16.70;55.20;;;;;;4994122;28;20369;-73
2021/03/16 00:10:01;;;;;;;8.00;3.60;;;16.70;55.10;;;;;;4993950;28;20041;-73
2021/03/16 00:12:27;;;;;;;9.75;3.95;;;16.70;55.10;;;;;;4993809;28;20029;-73
2021/03/16 00:14:53;;;;;;;8.65;3.55;;;16.70;54.90;;;;;;4983238;28;20462;-73
2021/03/16 00:17:19;;;;;;;9.57;3.40;;;16.80;54.90;;;;;;4976965;28;20039;-73
2021/03/16 00:19:45;;;;;;;9.05;3.53;;;16.70;54.90;;;;;;4993823;28;20034;-73
2021/03/16 00:22:12;;;;;;;7.78;3.13;;;16.70;54.90;;;;;;4993853;28;20030;-72
2021/03/16 00:24:38;;;;;;;7.55;2.85;;;16.70;54.90;;;;;;4976294;28;20053;-73
2021/03/16 00:27:04;;;;;;;8.95;3.55;;;16.70;54.90;;;;;;4981160;28;20572;-73
2021/03/16 00:29:30;;;;;;;7.85;3.03;;;16.70;54.90;;;;;;4994034;28;20065;-72
2021/03/16 00:31:56;;;;;;;7.75;3.10;;;16.80;54.80;;;;;;4993659;28;20019;-73
2021/03/16 00:34:22;;;;;;;7.05;2.55;;;16.80;54.80;;;;;;4993560;28;20061;-73
2021/03/16 00:36:48;;;;;;;7.75;2.92;;;16.80;54.80;;;;;;4993566;28;20077;-72
2021/03/16 00:39:14;;;;;;;8.90;3.05;;;16.70;54.70;;;;;;4976523;28;20069;-73
2021/03/16 00:41:40;;;;;;;7.28;2.80;;;16.80;54.70;;;;;;4993850;28;20042;-73
2021/03/16 00:44:06;;;;;;;6.32;2.65;;;16.80;54.70;;;;;;4992093;28;20043;-73
2021/03/16 00:46:32;;;;;;;8.95;3.05;;;16.80;54.90;;;;;;4993061;28;20030;-73
2021/03/16 00:48:58;;;;;;;7.20;2.22;;;16.70;54.80;;;;;;4973809;28;20026;-73
2021/03/16 00:51:24;;;;;;;7.15;2.60;;;16.80;55.00;;;;;;4962931;28;20034;-72
2021/03/16 00:53:50;;;;;;;7.40;2.70;;;16.70;55.00;;;;;;4992716;28;20029;-73
2021/03/16 00:56:16;;;;;;;6.95;2.33;;;16.70;55.00;;;;;;4993080;28;20028;-73
2021/03/16 00:58:41;;;;;;;7.47;2.40;;;16.70;55.00;;;;;;4993416;28;20030;-72
2021/03/16 01:01:08;;;;;;;5.85;2.30;;;16.70;55.00;;;;;;4993371;28;20511;-73
2021/03/16 01:03:35;;;;;;;8.52;2.30;;;16.70;55.10;;;;;;4974134;28;20114;-74
2021/03/16 01:06:02;;;;;;;6.53;2.30;;;16.60;55.10;;;;;;4973767;28;20110;-73
2021/03/16 01:08:28;;;;;;;7.30;2.25;;;16.60;55.20;;;;;;4973871;28;20029;-73
2021/03/16 01:10:55;;;;;;;6.70;2.60;;;16.60;55.20;;;;;;4973868;28;20019;-73
2021/03/16 01:13:22;;;;;;;7.40;2.10;;;16.60;55.20;;;;;;4984171;28;20034;-73
2021/03/16 01:15:48;;;;;;;5.80;2.10;;;16.50;55.20;;;;;;4993247;28;20421;-73
2021/03/16 01:18:14;;;;;;;7.68;1.83;;;16.50;55.20;;;;;;4993251;28;20038;-72
2021/03/16 01:20:40;;;;;;;7.00;2.10;;;16.50;55.20;;;;;;4993156;28;20030;-73
2021/03/16 01:23:06;;;;;;;6.35;2.20;;;16.50;55.20;;;;;;4993137;28;20037;-73
2021/03/16 01:25:32;;;;;;;6.18;1.95;;;16.50;55.20;;;;;;4993434;28;20027;-73
2021/03/16 01:27:58;;;;;;;5.38;1.83;;;16.50;55.30;;;;;;4993008;28;20548;-73
2021/03/16 01:30:25;;;;;;;7.20;2.05;;;16.50;55.40;;;;;;4992796;28;20049;-73
2021/03/16 01:32:52;;;;;;;5.38;1.80;;;16.50;55.40;;;;;;4993016;28;20033;-73
2021/03/16 01:35:18;;;;;;;6.50;2.10;;;16.50;55.50;;;;;;4993143;28;20045;-73
2021/03/16 01:37:44;;;;;;;6.20;1.73;;;16.50;55.40;;;;;;4993088;28;20474;-73
2021/03/16 01:40:16;;;;;;;10.48;2.40;;;16.50;55.50;;;;;;4993030;28;20385;-73
2021/03/16 01:42:42;;;;;;;6.22;2.05;;;16.50;55.60;;;;;;4975333;28;20406;-73
2021/03/16 01:45:14;;;;;;;5.80;1.83;;;16.40;55.50;;;;;;4992956;28;20022;-73
2021/03/16 01:47:40;;;;;;;7.65;2.22;;;16.40;55.60;;;;;;4992834;28;20058;-73
2021/03/16 01:50:10;;;;;;;6.38;1.83;;;16.40;55.70;;;;;;4992831;28;20030;-73
2021/03/16 01:52:37;;;;;;;6.75;1.80;;;16.40;55.60;;;;;;4980677;28;20019;-73
2021/03/16 01:55:04;;;;;;;7.65;1.85;;;16.40;55.60;;;;;;4973504;28;20019;-73
2021/03/16 01:57:32;;;;;;;5.65;1.80;;;16.40;55.60;;;;;;4973432;28;20058;-73
2021/03/16 01:59:58;;;;;;;5.47;1.80;;;16.40;55.60;;;;;;4973449;28;20038;-73
2021/03/16 02:02:24;;;;;;;5.70;1.77;;;16.40;55.40;;;;;;4975554;28;20581;-73
2021/03/16 02:04:51;;;;;;;6.32;1.67;;;16.30;55.30;;;;;;4965627;28;20130;-73
2021/03/16 02:07:26;;;;;;;7.35;1.80;;;16.40;55.40;;;;;;4975789;28;20023;-73
2021/03/16 02:10:04;;;;;;;4.68;1.45;;;16.40;55.50;;;;;;4970468;28;20030;-73
2021/03/16 02:12:35;;;;;;;5.63;1.90;;;16.40;55.60;;;;;;4996289;28;20121;-73
2021/03/16 02:15:26;;;;;;;5.03;1.70;;;16.40;55.60;;;;;;4996144;28;20030;-72
2021/03/16 02:17:57;;;;;;;8.25;1.75;;;16.40;55.50;;;;;;4996063;28;20390;-73
2021/03/16 02:20:59;;;;;;;6.32;1.48;;;16.40;55.50;;;;;;4995865;28;20073;-73
2021/03/16 02:24:02;;;;;;;5.25;1.50;;;16.30;55.50;;;;;;4995871;28;20536;-73
2021/03/16 02:26:29;;;;;;;4.28;1.38;;;16.40;55.50;;;;;;4995791;28;20081;-73
2021/03/16 02:29:04;;;;;;;5.80;1.77;;;16.40;55.50;;;;;;4995692;28;20065;-73
2021/03/16 02:31:32;;;;;;;5.35;1.58;;;16.40;55.40;;;;;;4995683;28;20033;-73
2021/03/16 02:34:02;;;;;;;6.00;1.50;;;16.30;55.50;;;;;;4995949;28;20030;-73
2021/03/16 02:36:28;;;;;;;5.53;1.70;;;16.50;55.60;;;;;;4995927;28;20374;-73
2021/03/16 02:38:56;;;;;;;5.60;1.58;;;16.30;55.60;;;;;;4995630;28;20022;-73
2021/03/16 02:41:23;;;;;;;5.50;1.67;;;16.40;55.70;;;;;;4995512;28;20053;-73
2021/03/16 02:43:49;;;;;;;6.13;1.50;;;16.30;55.70;;;;;;4995190;28;20050;-73
2021/03/16 02:46:16;;;;;;;3.53;1.30;;;16.30;55.70;;;;;;4995294;28;20407;-73
2021/03/16 02:48:46;;;;;;;5.60;1.58;;;16.40;55.70;;;;;;4995332;28;20035;-73
2021/03/16 02:51:12;;;;;;;5.07;1.60;;;16.30;55.70;;;;;;4978025;28;20366;-73
2021/03/16 02:53:39;;;;;;;4.32;1.38;;;16.40;55.80;;;;;;4994830;28;20018;-73
2021/03/16 02:56:06;;;;;;;5.10;1.65;;;16.30;55.80;;;;;;4977766;28;20085;-73
2021/03/16 02:58:34;;;;;;;4.97;1.50;;;16.30;55.70;;;;;;4977969;28;20029;-73
2021/03/16 03:01:01;;;;;;;4.43;1.48;;;16.30;55.70;;;;;;4994869;28;20072;-73
2021/03/16 03:03:29;;;;;;;4.78;1.38;;;16.30;55.60;;;;;;4994588;28;20041;-73
2021/03/16 03:05:56;;;;;;;4.43;1.30;;;16.30;55.70;;;;;;4994980;28;20084;-73
2021/03/16 03:08:24;;;;;;;4.70;1.50;;;16.30;55.80;;;;;;4995113;28;20030;-73
2021/03/16 03:10:50;;;;;;;6.30;1.50;;;16.30;55.80;;;;;;4995129;28;20026;-73
2021/03/16 03:13:16;;;;;;;4.70;1.33;;;16.30;55.80;;;;;;4994130;28;20030;-73
2021/03/16 03:15:42;;;;;;;3.90;1.40;;;16.20;55.90;;;;;;4977775;28;20109;-73
2021/03/16 03:18:09;;;;;;;5.40;1.23;;;16.20;55.90;;;;;;4994740;28;20379;-72
2021/03/16 03:20:36;;;;;;;5.28;1.23;;;16.20;56.00;;;;;;4994901;28;20098;-73
2021/03/16 03:23:06;;;;;;;5.68;1.30;;;16.30;55.90;;;;;;4994470;28;20072;-73
2021/03/16 03:25:38;;;;;;;5.55;1.45;;;16.20;56.00;;;;;;4994747;28;20049;-73
2021/03/16 03:28:15;;;;;;;4.68;1.60;;;16.20;56.00;;;;;;4994747;28;20026;-73
2021/03/16 03:30:41;;;;;;;5.22;1.58;;;16.20;56.00;;;;;;4977299;28;20073;-73
2021/03/16 03:33:09;;;;;;;5.40;1.33;;;16.20;56.00;;;;;;4994253;28;20027;-73
2021/03/16 03:35:38;;;;;;;4.32;1.05;;;16.20;56.10;;;;;;4994877;28;20053;-73
2021/03/16 03:38:05;;;;;;;6.18;1.50;;;16.20;56.10;;;;;;4994817;28;20045;-73
2021/03/16 03:40:32;;;;;;;5.72;1.55;;;16.20;56.10;;;;;;4994541;28;20022;-73
2021/03/16 03:43:01;;;;;;;7.22;1.60;;;16.10;56.10;;;;;;4993870;28;20085;-73
2021/03/16 03:45:28;;;;;;;5.65;1.45;;;16.10;56.10;;;;;;4977147;28;20022;-73
2021/03/16 03:47:58;;;;;;;5.63;1.55;;;16.20;55.90;;;;;;4976704;28;20109;-73
2021/03/16 03:50:25;;;;;;;7.35;1.48;;;16.20;55.70;;;;;;4961519;28;20437;-72
2021/03/16 03:52:53;;;;;;;4.50;1.48;;;16.20;55.80;;;;;;4993991;28;20037;-73
2021/03/16 03:55:21;;;;;;;6.28;1.85;;;16.20;55.80;;;;;;4994512;28;20038;-73
2021/03/16 03:57:48;;;;;;;4.43;1.45;;;16.20;55.70;;;;;;4993975;28;20034;-72
2021/03/16 04:00:15;;;;;;;4.65;1.10;;;16.20;55.80;;;;;;4993883;28;20149;-72
2021/03/16 04:02:42;;;;;;;3.78;1.15;;;16.20;55.80;;;;;;4993779;28;20030;-72
2021/03/16 04:05:19;;;;;;;5.22;1.60;;;16.20;55.80;;;;;;4992979;28;20061;-73
2021/03/16 04:07:45;;;;;;;4.07;1.20;;;16.20;55.80;;;;;;4994002;28;20556;-73
2021/03/16 04:10:13;;;;;;;5.88;1.63;;;16.10;55.90;;;;;;4993909;28;20026;-73
2021/03/16 04:12:40;;;;;;;5.72;1.35;;;16.10;55.90;;;;;;4993619;28;20045;-73
2021/03/16 04:15:09;;;;;;;7.07;1.30;;;16.10;55.90;;;;;;4994193;28;20054;-73
2021/03/16 04:17:36;;;;;;;6.20;1.40;;;16.10;56.00;;;;;;4993821;28;20092;-73
2021/03/16 04:20:07;;;;;;;6.30;1.60;;;16.00;56.00;;;;;;4994417;28;20030;-73
2021/03/16 04:22:33;;;;;;;5.73;1.67;;;16.00;56.00;;;;;;4993048;28;20054;-73
2021/03/16 04:24:59;;;;;;;5.30;1.60;;;16.10;56.00;;;;;;4992641;28;20316;-72
2021/03/16 04:27:25;;;;;;;4.32;1.17;;;16.00;56.00;;;;;;4993469;28;20454;-73
2021/03/16 04:29:51;;;;;;;4.47;1.45;;;16.00;56.10;;;;;;4993992;28;20030;-73
2021/03/16 04:32:17;;;;;;;5.00;1.40;;;16.00;56.60;;;;;;4993862;28;20117;-72
2021/03/16 04:34:43;;;;;;;4.45;1.30;;;16.00;56.10;;;;;;4993333;28;20031;-73
2021/03/16 04:37:09;;;;;;;3.83;1.30;;;16.00;56.10;;;;;;4992874;28;20101;-73
2021/03/16 04:39:35;;;;;;;3.28;1.25;;;15.90;56.10;;;;;;4993383;28;20038;-73
2021/03/16 04:42:00;;;;;;;5.43;1.27;;;15.90;56.20;;;;;;4993369;28;20030;-73
2021/03/16 04:44:26;;;;;;;3.85;1.33;;;15.90;56.10;;;;;;4992974;28;20100;-73
2021/03/16 04:46:53;;;;;;;4.53;1.35;;;15.90;56.10;;;;;;4993462;28;20414;-73
2021/03/16 04:49:18;;;;;;;5.38;1.20;;;15.90;56.10;;;;;;4993685;28;20022;-73
2021/03/16 04:51:44;;;;;;;5.90;1.60;;;15.90;56.00;;;;;;4993448;28;20496;-73
2021/03/16 04:54:10;;;;;;;5.07;1.40;;;15.90;56.00;;;;;;4993089;28;20065;-73
2021/03/16 04:56:36;;;;;;;4.53;1.40;;;15.90;56.00;;;;;;4993399;28;20034;-73
2021/03/16 04:59:02;;;;;;;3.78;1.23;;;15.80;56.00;;;;;;4993355;28;20079;-73
2021/03/16 05:01:28;;;;;;;4.75;1.25;;;15.80;56.00;;;;;;4992646;28;20169;-73
2021/03/16 05:03:55;;;;;;;5.68;1.60;;;15.80;56.50;;;;;;4992421;28;20379;-72
2021/03/16 05:06:21;;;;;;;7.13;1.55;;;15.80;56.00;;;;;;4992438;28;20142;-73
2021/03/16 05:08:46;;;;;;;4.95;1.30;;;15.80;56.10;;;;;;4993182;28;20082;-73
2021/03/16 05:11:12;;;;;;;4.60;1.40;;;15.80;56.20;;;;;;4975681;28;20113;-73
2021/03/16 05:13:38;;;;;;;4.90;1.23;;;15.80;56.10;;;;;;4992965;28;20041;-72
2021/03/16 05:16:05;;;;;;;4.82;1.25;;;15.80;56.20;;;;;;4971285;28;20039;-74
2021/03/16 05:18:31;;;;;;;9.00;1.38;;;15.80;56.10;;;;;;4973212;28;20088;-72
2021/03/16 05:20:58;;;;;;;7.90;1.35;;;15.80;56.10;;;;;;4963325;28;20030;-73
2021/03/16 05:23:24;;;;;;;5.15;1.23;;;15.80;56.10;;;;;;4985813;28;20030;-73
2021/03/16 05:25:50;;;;;;;5.93;1.38;;;15.80;56.20;;;;;;4957486;28;20383;-73
2021/03/16 05:28:15;;;;;;;5.70;1.50;;;15.80;56.10;;;;;;4991985;28;20026;-73
2021/03/16 05:30:41;;;;;;;5.38;1.48;;;15.80;56.10;;;;;;4992748;28;20027;-74
2021/03/16 05:33:07;;;;;;;4.55;1.27;;;15.80;56.10;;;;;;4975365;28;20085;-74
2021/03/16 05:35:33;;;;;;;6.80;1.58;;;15.80;56.70;;;;;;4994254;28;20029;-74
2021/03/16 05:37:59;;;;;;;7.97;1.45;;;15.80;56.10;;;;;;4996017;28;20031;-74
2021/03/16 05:40:28;;;;;;;6.13;1.58;;;15.80;56.10;;;;;;4977622;28;20073;-74
2021/03/16 05:42:55;;;;;;;7.03;1.52;;;15.80;56.20;;;;;;4978947;28;20051;-74
2021/03/16 05:45:23;;;;;;;6.45;1.60;;;15.80;56.40;;;;;;4976128;28;20029;-73
2021/03/16 05:47:50;;;;;;;6.45;1.58;;;15.80;56.20;;;;;;4979235;28;20053;-73
2021/03/16 05:50:16;;;;;;;9.73;2.05;;;15.80;56.10;;;;;;4996558;28;20030;-70
2021/03/16 05:52:43;;;;;;;9.95;2.05;;;15.80;56.20;;;;;;4979701;28;20023;-73
2021/03/16 05:55:09;;;;;;;13.25;2.20;;;15.80;56.10;;;;;;4995698;28;20022;-73
2021/03/16 05:57:36;;;;;;;34.63;3.53;;;15.80;56.10;;;;;;4993877;28;20516;-74
2021/03/16 06:00:04;;;;;;;12.57;2.22;;;15.90;56.70;;;;;;4980181;28;20062;-71
2021/03/16 06:02:30;;;;;;;37.50;3.45;;;17.60;56.30;;;;;;4994824;28;20042;-73
2021/03/16 06:04:56;;;;;;;11.00;2.50;;;19.30;49.10;;;;;;4996387;28;20021;-74
2021/03/16 06:07:23;;;;;;;11.40;2.50;;;20.10;46.00;;;;;;4992006;28;20059;-78
2021/03/16 06:09:49;;;;;;;11.68;1.95;;;18.30;48.00;;;;;;4978572;28;20027;-79
2021/03/16 06:12:28;;;;;;;16.40;2.35;;;17.20;52.00;;;;;;4965234;28;20050;-78
2021/03/16 06:14:54;;;;;;;13.20;2.00;;;16.60;54.50;;;;;;4980681;28;20047;-74
2021/03/16 06:17:22;;;;;;;16.15;2.63;;;16.30;55.30;;;;;;4984995;28;20057;-77
2021/03/16 06:19:48;;;;;;;14.63;2.80;;;16.10;55.20;;;;;;4994937;28;20050;-75
2021/03/16 06:22:19;;;;;;;13.77;2.30;;;16.10;55.60;;;;;;4978263;28;20065;-74
2021/03/16 06:24:48;;;;;;;13.43;2.20;;;16.10;55.80;;;;;;4994567;28;20046;-74
2021/03/16 06:27:22;;;;;;;14.07;2.42;;;16.10;55.80;;;;;;4975714;28;20077;-73
2021/03/16 06:29:50;;;;;;;18.02;4.28;;;16.20;56.10;;;;;;4978925;28;20022;-78
2021/03/16 06:32:17;;;;;;;12.13;3.45;;;16.30;55.70;;;;;;4979564;28;20022;-71
2021/03/16 06:34:43;;;;;;;14.27;2.85;;;16.30;55.90;;;;;;4988289;28;20397;-74
2021/03/16 06:37:10;;;;;;;41.67;4.28;;;16.30;55.50;;;;;;4991437;28;20332;-75
2021/03/16 06:39:43;;;;;;;13.80;2.42;;;16.30;56.40;;;;;;4947303;28;20023;-71
2021/03/16 06:42:29;;;;;;;10.32;2.70;;;16.40;55.20;;;;;;4988432;28;20068;-72
2021/03/16 06:45:07;;;;;;;12.40;2.85;;;16.30;55.60;;;;;;4960910;28;20085;-71
2021/03/16 06:47:40;;;;;;;11.50;2.50;;;16.30;56.40;;;;;;4970060;28;20077;-72
2021/03/16 06:50:09;;;;;;;10.98;2.40;;;16.30;55.60;;;;;;4975984;28;20019;-72
2021/03/16 06:52:35;;;;;;;12.52;2.45;;;16.40;55.50;;;;;;4975445;28;20553;-73
2021/03/16 06:55:14;;;;;;;9.13;2.67;;;16.30;55.50;;;;;;4981330;28;20026;-72
2021/03/16 06:57:40;;;;;;;7.35;2.17;;;16.30;55.50;;;;;;4977545;28;20034;-72
2021/03/16 07:00:10;;;;;;;12.82;2.55;;;16.30;55.40;;;;;;4995023;28;20026;-72
2021/03/16 07:02:35;;;;;;;10.32;2.50;;;16.30;55.40;;;;;;4994983;28;20026;-72
2021/03/16 07:05:02;;;;;;;11.35;2.28;;;16.40;55.20;;;;;;4994846;28;20038;-73
2021/03/16 07:07:29;;;;;;;11.43;2.80;;;16.40;55.30;;;;;;4994677;28;20026;-68
2021/03/16 07:10:00;;;;;;;8.73;2.28;;;16.40;55.60;;;;;;4995667;28;20026;-70
2021/03/16 07:12:32;;;;;;;9.15;2.20;;;16.50;55.20;;;;;;4995090;28;20481;-73
2021/03/16 07:14:59;;;;;;;8.85;2.35;;;16.50;55.10;;;;;;4977713;28;20030;-73
2021/03/16 07:17:25;;;;;;;11.77;2.70;;;16.60;55.30;;;;;;4995229;28;20386;-73
2021/03/16 07:19:59;;;;;;;12.60;2.63;;;16.60;55.00;;;;;;4995398;28;20049;-73
2021/03/16 07:22:27;;;;;;;12.57;2.53;;;16.60;55.00;;;;;;4968200;28;20034;-73
2021/03/16 07:27:28;;;;;;;9.85;2.28;;;16.50;55.30;;;;;;5017432;23;20607;-66
2021/03/16 07:29:54;;;;;;;10.23;2.55;;;16.50;55.30;;;;;;4966470;28;20027;-66
2021/03/16 07:32:20;;;;;;;38.10;15.45;;;16.50;55.30;;;;;;4973124;28;20494;-72
2021/03/16 07:34:46;;;;;;;44.92;19.02;;;16.50;55.30;;;;;;4971115;28;20066;-72
2021/03/16 07:37:12;;;;;;;33.80;14.43;;;16.60;55.20;;;;;;4954179;28;20093;-72
2021/03/16 07:39:39;;;;;;;31.63;13.02;;;16.60;55.80;;;;;;4955339;29;20023;-71
2021/03/16 07:42:06;;;;;;;29.95;13.15;;;16.60;55.40;;;;;;4953785;29;20066;-70
2021/03/16 07:44:44;;;;;;;26.42;11.95;;;16.70;55.20;;;;;;4955301;29;20038;-69
2021/03/16 07:47:09;;;;;;;25.80;11.57;;;16.70;55.30;;;;;;4954016;28;20034;-69
2021/03/16 07:49:40;;;;;;;23.83;10.48;;;16.70;55.10;;;;;;4936377;29;20024;-67
2021/03/16 07:52:19;;;;;;;25.98;9.13;;;16.70;54.90;;;;;;4948245;29;20529;-70
2021/03/16 07:54:47;;;;;;;20.75;8.77;;;16.80;54.60;;;;;;4955408;29;20097;-70
2021/03/16 07:57:25;;;;;;;21.35;8.43;;;16.90;54.30;;;;;;4954774;28;20062;-70
2021/03/16 07:59:58;;;;;;;19.08;7.85;;;17.00;54.10;;;;;;4955489;28;20482;-65
2021/03/16 08:02:29;;;;;;;23.48;7.82;;;17.00;53.70;;;;;;4932921;29;20027;-70
2021/03/16 08:04:55;;;;;;;22.77;7.95;;;17.00;53.80;;;;;;4942262;29;20024;-69
2021/03/16 08:07:27;;;;;;;20.25;6.55;;;17.00;54.00;;;;;;4949296;29;20097;-70
2021/03/16 08:09:57;;;;;;;20.70;6.72;;;16.90;54.00;;;;;;4941375;29;20035;-71
2021/03/16 08:12:28;;;;;;;17.17;6.28;;;16.90;54.00;;;;;;4945405;29;20382;-70
2021/03/16 08:14:55;;;;;;;19.48;6.30;;;16.80;54.00;;;;;;4936248;29;20024;-70
2021/03/16 08:17:32;;;;;;;16.70;6.20;;;16.80;54.10;;;;;;4954111;28;20106;-70
2021/03/16 08:19:59;;;;;;;16.50;5.72;;;16.80;54.10;;;;;;4953852;29;20077;-70
2021/03/16 08:22:27;;;;;;;16.48;5.15;;;16.90;54.00;;;;;;4939378;29;20033;-70
2021/03/16 08:25:05;;;;;;;15.75;5.15;;;16.90;53.90;;;;;;4954356;29;20027;-70
2021/03/16 08:27:35;;;;;;;15.95;5.03;;;17.00;53.90;;;;;;4947409;29;20418;-70
2021/03/16 08:30:08;;;;;;;15.65;4.78;;;17.10;53.50;;;;;;4944452;29;20047;-67
2021/03/16 08:32:36;;;;;;;19.33;5.13;;;17.10;53.30;;;;;;4941563;29;20082;-70
2021/03/16 08:35:02;;;;;;;14.52;4.65;;;17.00;53.70;;;;;;4946084;29;20058;-68
2021/03/16 08:37:33;;;;;;;14.65;4.80;;;16.90;54.00;;;;;;4952837;29;20054;-67
2021/03/16 08:40:00;;;;;;;19.65;5.15;;;16.80;54.20;;;;;;4942024;29;20054;-65
2021/03/16 08:42:28;;;;;;;14.65;4.63;;;16.80;54.90;;;;;;4953245;29;20031;-68
2021/03/16 08:44:55;;;;;;;15.38;5.03;;;16.80;54.40;;;;;;4925450;29;20023;-67
2021/03/16 08:47:23;;;;;;;14.00;4.32;;;16.80;54.50;;;;;;4935633;29;20027;-68
2021/03/16 08:49:51;;;;;;;10.02;3.80;;;16.80;54.50;;;;;;4952987;29;20023;-68
2021/03/16 08:52:22;;;;;;;13.23;3.92;;;16.80;54.50;;;;;;4951981;29;20497;-67
2021/03/16 08:54:50;;;;;;;14.30;4.23;;;16.90;54.50;;;;;;4953075;29;20043;-69
2021/03/16 08:57:17;;;;;;;14.45;4.28;;;16.80;54.40;;;;;;4927602;29;20307;-64
2021/03/16 08:59:50;;;;;;;13.02;3.70;;;16.80;54.20;;;;;;4934858;29;20047;-69
2021/03/16 09:02:28;;;;;;;11.52;3.85;;;16.90;54.40;;;;;;4934591;29;20538;-68
2021/03/16 09:04:58;;;;;;;11.70;3.50;;;16.90;54.10;;;;;;4942602;29;20031;-69
2021/03/16 09:07:29;;;;;;;10.90;3.40;;;16.80;54.20;;;;;;4935945;29;20078;-69
2021/03/16 09:10:12;;;;;;;10.00;3.50;;;16.70;54.30;;;;;;4948821;28;20031;-68
2021/03/16 09:12:41;;;;;;;11.05;3.33;;;16.80;54.30;;;;;;4953670;28;20028;-69
2021/03/16 09:15:21;;;;;;;12.10;3.70;;;16.70;54.20;;;;;;4939253;29;20023;-69
2021/03/16 09:17:50;;;;;;;13.55;3.00;;;16.70;54.20;;;;;;4951986;29;20494;-69
2021/03/16 09:20:18;;;;;;;11.30;3.33;;;16.80;54.10;;;;;;4952910;29;20035;-69
2021/03/16 09:22:51;;;;;;;12.25;3.20;;;16.80;54.00;;;;;;4934891;29;20063;-69
2021/03/16 09:25:16;;;;;;;10.32;3.08;;;16.90;54.00;;;;;;4954812;28;20035;-69
2021/03/16 09:27:43;;;;;;;13.65;3.20;;;16.90;53.90;;;;;;4957542;29;20027;-69
2021/03/16 09:30:11;;;;;;;11.52;3.40;;;16.90;53.90;;;;;;4958029;29;20026;-69
2021/03/16 09:32:41;;;;;;;9.27;2.85;;;16.80;54.00;;;;;;4958152;29;20474;-69
2021/03/16 09:35:07;;;;;;;9.60;3.20;;;16.80;54.00;;;;;;4940192;28;20038;-69
2021/03/16 09:37:44;;;;;;;11.65;3.25;;;16.80;54.10;;;;;;4940341;29;20387;-69
2021/03/16 09:40:11;;;;;;;11.13;3.05;;;16.70;54.10;;;;;;4956743;29;20059;-69
2021/03/16 09:42:40;;;;;;;8.10;2.67;;;16.70;54.20;;;;;;4945022;29;20326;-69
2021/03/16 09:45:14;;;;;;;13.05;2.88;;;16.70;54.20;;;;;;4954113;28;20039;-69
2021/03/16 09:47:40;;;;;;;10.45;3.17;;;16.70;53.90;;;;;;4949973;29;20497;-69
2021/03/16 09:50:10;;;;;;;9.95;2.65;;;16.80;54.10;;;;;;4956811;29;20038;-69
2021/03/16 09:52:36;;;;;;;9.38;2.95;;;16.70;54.10;;;;;;4948083;29;20020;-70
2021/03/16 09:55:03;;;;;;;9.90;2.40;;;16.70;54.10;;;;;;4947954;29;20217;-70
2021/03/16 09:57:33;;;;;;;9.52;2.28;;;16.70;54.10;;;;;;4957220;29;20023;-70
2021/03/16 09:59:59;;;;;;;8.35;2.80;;;16.70;54.00;;;;;;4957418;29;20043;-70
2021/03/16 10:02:33;;;;;;;8.07;2.50;;;16.70;53.90;;;;;;4940337;29;20038;-70
2021/03/16 10:05:05;;;;;;;8.27;2.30;;;16.70;53.80;;;;;;4956785;29;20378;-70
2021/03/16 10:07:32;;;;;;;8.35;2.47;;;16.70;53.80;;;;;;4940052;29;20043;-70
2021/03/16 10:10:14;;;;;;;7.97;2.10;;;16.70;53.80;;;;;;4957429;29;20024;-70
2021/03/16 10:13:16;;;;;;;8.73;2.28;;;16.70;53.70;;;;;;4957487;29;20552;-70
2021/03/16 10:15:44;;;;;;;6.45;2.05;;;16.60;53.70;;;;;;4936087;29;20042;-70
2021/03/16 10:18:12;;;;;;;6.32;1.90;;;16.60;53.60;;;;;;4957260;29;20031;-70
2021/03/16 10:20:49;;;;;;;8.00;2.00;;;16.60;53.50;;;;;;4956887;29;20433;-70
2021/03/16 10:23:20;;;;;;;8.45;1.90;;;16.70;53.50;;;;;;4956263;29;20049;-70
2021/03/16 10:26:07;;;;;;;7.30;1.70;;;16.70;53.30;;;;;;4956735;28;20035;-70
2021/03/16 10:28:38;;;;;;;8.32;2.13;;;16.70;53.30;;;;;;4956977;29;20027;-70
2021/03/16 10:31:25;;;;;;;6.95;2.08;;;16.70;53.20;;;;;;4939667;29;20384;-70
2021/03/16 10:33:54;;;;;;;6.85;1.77;;;16.70;53.10;;;;;;4920702;29;20541;-70
2021/03/16 10:36:21;;;;;;;7.13;1.73;;;16.70;53.00;;;;;;4948616;28;20031;-70
2021/03/16 10:38:48;;;;;;;7.60;2.08;;;16.70;52.90;;;;;;4945671;29;20055;-69
2021/03/16 10:41:18;;;;;;;6.13;2.00;;;16.70;52.80;;;;;;4924581;29;20042;-69
2021/03/16 10:43:44;;;;;;;6.50;1.52;;;16.80;52.70;;;;;;4945985;29;20058;-71
2021/03/16 10:46:10;;;;;;;5.60;1.70;;;16.80;52.60;;;;;;4955613;28;20035;-71
2021/03/16 10:48:35;;;;;;;7.47;1.65;;;16.70;52.70;;;;;;4955864;29;20154;-70
2021/03/16 10:51:02;;;;;;;5.93;1.77;;;16.70;52.80;;;;;;4956585;29;20027;-69
2021/03/16 10:53:27;;;;;;;7.95;1.58;;;16.70;52.70;;;;;;4956578;29;20015;-69
2021/03/16 10:55:54;;;;;;;5.78;1.48;;;16.70;52.60;;;;;;4956667;28;20025;-69
2021/03/16 10:58:19;;;;;;;6.15;1.80;;;16.80;52.60;;;;;;4956365;29;20038;-69
2021/03/16 11:00:45;;;;;;;5.32;1.42;;;16.80;52.50;;;;;;4955717;29;20023;-68
2021/03/16 11:03:11;;;;;;;5.68;1.40;;;16.80;52.30;;;;;;4955988;29;20032;-70
2021/03/16 11:05:37;;;;;;;6.00;1.65;;;16.90;52.20;;;;;;4938330;29;20039;-69
2021/03/16 11:08:03;;;;;;;5.88;1.75;;;16.90;52.10;;;;;;4955883;29;20035;-69
2021/03/16 11:10:29;;;;;;;5.93;1.55;;;17.00;52.00;;;;;;4955183;28;20035;-69
2021/03/16 11:12:55;;;;;;;9.60;1.98;;;17.10;51.70;;;;;;4938881;29;20027;-70
2021/03/16 11:15:21;;;;;;;4.72;1.42;;;17.40;50.80;;;;;;4955448;28;20050;-70
2021/03/16 11:17:47;;;;;;;4.68;1.30;;;17.60;50.00;;;;;;4955990;29;20023;-70
2021/03/16 11:20:14;;;;;;;4.75;1.55;;;17.80;49.70;;;;;;4938561;29;20051;-70
2021/03/16 11:22:40;;;;;;;5.28;1.40;;;17.90;49.00;;;;;;4954871;29;20035;-70
2021/03/16 11:25:06;;;;;;;6.05;1.73;;;17.70;49.10;;;;;;4955835;28;20471;-69
2021/03/16 11:27:33;;;;;;;5.30;1.45;;;17.50;49.90;;;;;;4938302;29;20074;-72
2021/03/16 11:29:58;;;;;;;7.47;1.52;;;17.40;50.10;;;;;;4955382;29;20094;-69
2021/03/16 11:32:25;;;;;;;4.15;1.40;;;17.20;50.40;;;;;;4955442;29;20069;-69
2021/03/16 11:34:50;;;;;;;4.13;1.30;;;17.10;50.80;;;;;;4955346;29;20038;-69
2021/03/16 11:37:16;;;;;;;5.47;1.27;;;17.10;50.90;;;;;;4948278;28;20036;-69
2021/03/16 11:39:44;;;;;;;5.47;1.42;;;17.00;51.10;;;;;;4919423;29;20110;-69
2021/03/16 11:42:10;;;;;;;4.15;1.20;;;17.00;51.10;;;;;;4936470;29;20039;-69
2021/03/16 11:44:36;;;;;;;4.80;1.13;;;16.80;51.10;;;;;;4919451;29;20031;-69
2021/03/16 11:47:01;;;;;;;5.18;1.45;;;16.90;51.30;;;;;;4936218;29;20024;-70
2021/03/16 11:49:27;;;;;;;7.20;1.40;;;16.80;51.50;;;;;;4923987;29;20019;-69
2021/03/16 11:51:53;;;;;;;8.65;1.40;;;16.90;51.20;;;;;;4953203;29;20031;-67
2021/03/16 11:54:18;;;;;;;6.78;1.20;;;17.00;51.30;;;;;;4952799;29;20034;-66
2021/03/16 11:56:44;;;;;;;6.13;1.20;;;17.10;51.10;;;;;;4932512;29;20031;-67
2021/03/16 11:59:10;;;;;;;4.97;1.10;;;17.30;50.70;;;;;;4955183;29;20106;-68
2021/03/16 12:01:36;;;;;;;6.75;1.90;;;17.30;50.20;;;;;;4936978;29;20110;-67
2021/03/16 12:04:02;;;;;;;7.43;1.60;;;17.40;50.40;;;;;;4939406;29;20095;-67
2021/03/16 12:06:28;;;;;;;5.30;1.40;;;17.50;49.90;;;;;;4939715;29;20031;-67
2021/03/16 12:08:54;;;;;;;6.43;1.20;;;17.50;49.80;;;;;;4954873;29;20043;-68
2021/03/16 12:11:20;;;;;;;7.70;1.30;;;17.40;50.30;;;;;;4952514;29;20055;-68
2021/03/16 12:13:46;;;;;;;5.63;1.20;;;17.60;49.60;;;;;;4936025;29;20059;-68
2021/03/16 12:16:11;;;;;;;4.18;1.00;;;17.90;49.10;;;;;;4950783;28;20027;-67
2021/03/16 12:18:37;;;;;;;6.15;1.08;;;18.10;48.30;;;;;;4955165;29;20086;-68
2021/03/16 12:21:03;;;;;;;6.70;1.48;;;18.00;48.20;;;;;;4955039;29;20086;-68
2021/03/16 12:23:29;;;;;;;5.78;1.52;;;17.90;48.10;;;;;;4954831;29;20031;-68
2021/03/16 12:25:54;;;;;;;4.60;1.10;;;17.80;48.50;;;;;;4952533;28;20390;-64
2021/03/16 12:28:21;;;;;;;7.97;1.00;;;17.80;48.90;;;;;;4946930;29;20035;-63
2021/03/16 12:30:47;;;;;;;6.45;1.17;;;17.80;49.00;;;;;;4954674;29;20023;-64
2021/03/16 12:33:13;;;;;;;4.50;1.20;;;18.00;48.20;;;;;;4954419;29;20019;-64
2021/03/16 12:35:40;;;;;;;11.52;1.60;;;18.10;48.10;;;;;;4936868;29;20027;-68
2021/03/16 12:38:05;;;;;;;9.40;1.52;;;18.00;48.60;;;;;;4954462;29;20038;-68
2021/03/16 12:40:31;;;;;;;8.82;1.50;;;18.20;48.10;;;;;;4953291;29;20526;-68
2021/03/16 12:42:57;;;;;;;10.30;1.45;;;18.30;47.60;;;;;;4936628;29;20391;-68
2021/03/16 12:45:22;;;;;;;8.90;1.58;;;18.40;47.40;;;;;;4953516;28;20030;-67
2021/03/16 12:47:50;;;;;;;12.63;1.60;;;18.50;47.50;;;;;;4955187;29;20027;-68
2021/03/16 12:50:16;;;;;;;8.20;1.50;;;18.50;47.00;;;;;;4953537;29;20059;-64